Terminal Aerodrome Forecast
Issued by NWS Wakefield, VA

Home | Current Version | Previous Version | Text Only | Print | Product List | Glossary On
Versions: 1 2 3 4 5 6 7 8 9 10 11 12 13 14 15 16
000
FTUS41 KAKQ 241120
TAFSBY
TAF
KSBY 241120Z 2412/2512 09007KT P6SM SCT050 OVC120
     FM241400 10012KT P6SM VCSH BKN050
     FM241600 11014G21KT 6SM -RA BKN015 OVC030
     FM242000 11014G21KT 4SM RA OVC010 WS020/15040KT
     FM250100 11012KT 3SM -RA BR OVC007=

USA.gov is the U.S. government's official web portal to all federal, state and local government web resources and services.